Time;durP1;ratioP1;P1;durP2;ratioP2;P2;SDS_P1;SDS_P2;PMS_P1;PMS_P2;Temp;Humidity;BMP_temperature;BMP_pressure;BME280_temperature;BME280_humidity;BME280_pressure;Samples;Min_cycle;Max_cycle;Signal;HPM_P1;HPM_P2
2021/07/09 00:01:57;;;;;;;35.58;18.58;;;14.20;99.90;;;;;;5039655;28;20056;-75
2021/07/09 00:04:24;;;;;;;36.22;18.88;;;14.20;99.90;;;;;;5043989;28;20124;-75
2021/07/09 00:06:51;;;;;;;35.75;19.33;;;14.10;99.90;;;;;;5023546;28;20140;-75
2021/07/09 00:09:17;;;;;;;41.28;20.45;;;14.10;99.90;;;;;;5043976;28;20045;-75
2021/07/09 00:11:46;;;;;;;41.85;21.35;;;14.10;99.90;;;;;;5026963;28;20029;-76
2021/07/09 00:14:15;;;;;;;42.40;22.40;;;14.00;99.90;;;;;;5046478;28;20048;-75
2021/07/09 00:16:42;;;;;;;42.45;22.25;;;14.10;99.90;;;;;;5028344;28;20119;-75
2021/07/09 00:19:08;;;;;;;41.72;21.08;;;14.10;99.90;;;;;;5025840;28;20036;-75
2021/07/09 00:21:36;;;;;;;;;;;14.10;99.90;;;;;;5033154;28;20065;-75
2021/07/09 00:24:04;;;;;;;40.53;21.00;;;14.10;99.90;;;;;;5034470;28;19925;-75
2021/07/09 00:26:30;;;;;;;43.85;23.10;;;14.00;99.90;;;;;;5044608;28;20055;-74
2021/07/09 00:28:59;;;;;;;50.97;25.50;;;14.10;99.90;;;;;;5036640;28;20033;-75
2021/07/09 00:31:26;;;;;;;47.63;24.42;;;14.10;99.90;;;;;;5033318;28;20041;-75
2021/07/09 00:33:52;;;;;;;48.92;24.75;;;14.10;99.90;;;;;;5050296;28;20135;-74
2021/07/09 00:36:18;;;;;;;48.45;24.13;;;14.10;99.90;;;;;;5051763;28;20037;-75
2021/07/09 00:38:44;;;;;;;56.65;27.20;;;14.10;99.90;;;;;;5039284;28;20091;-75
2021/07/09 00:41:11;;;;;;;;;;;14.10;99.90;;;;;;5030875;28;20036;-75
2021/07/09 00:43:39;;;;;;;41.92;21.35;;;14.10;99.90;;;;;;5041740;28;19939;-75
2021/07/09 00:46:05;;;;;;;44.10;20.33;;;14.00;99.90;;;;;;5045883;28;20071;-75
2021/07/09 00:48:31;;;;;;;34.90;18.35;;;13.90;99.90;;;;;;5038724;28;20037;-75
2021/07/09 00:51:04;;;;;;;;;;;13.90;99.90;;;;;;5034786;28;20120;-75
2021/07/09 00:53:30;;;;;;;36.13;20.02;;;13.80;99.90;;;;;;5047232;28;20422;-75
2021/07/09 00:55:57;;;;;;;42.60;22.50;;;13.70;99.90;;;;;;5038278;28;20113;-75
2021/07/09 00:58:23;;;;;;;46.10;22.63;;;13.60;99.90;;;;;;5036397;28;20111;-74
2021/07/09 01:00:48;;;;;;;;;;;13.60;99.90;;;;;;4998139;28;20044;-75
2021/07/09 01:03:15;;;;;;;45.85;22.08;;;13.50;99.90;;;;;;5035702;28;20333;-75
2021/07/09 01:05:42;;;;;;;51.30;23.08;;;13.50;99.90;;;;;;5038533;28;20057;-75
2021/07/09 01:08:08;;;;;;;48.70;24.77;;;13.50;99.90;;;;;;5021302;28;20116;-75
2021/07/09 01:10:34;;;;;;;44.80;22.17;;;13.50;99.90;;;;;;5047833;28;20159;-75
2021/07/09 01:13:00;;;;;;;45.50;22.45;;;13.40;99.90;;;;;;5049556;28;20494;-75
2021/07/09 01:15:26;;;;;;;;;;;13.40;99.90;;;;;;5024736;28;20494;-75
2021/07/09 01:17:52;;;;;;;47.30;21.70;;;13.30;99.90;;;;;;5037871;28;19917;-75
2021/07/09 01:20:20;;;;;;;51.22;22.70;;;13.30;99.90;;;;;;5044326;28;20418;-75
2021/07/09 01:22:48;;;;;;;48.53;23.95;;;13.30;99.90;;;;;;5046171;28;20040;-75
2021/07/09 01:25:23;;;;;;;62.00;26.88;;;13.30;99.90;;;;;;5036714;28;20040;-74
2021/07/09 01:28:04;;;;;;;48.47;23.67;;;13.30;99.90;;;;;;5045338;28;20034;-75
2021/07/09 01:30:30;;;;;;;52.33;26.40;;;13.30;99.90;;;;;;5035003;28;20037;-75
2021/07/09 01:32:56;;;;;;;61.63;28.70;;;13.30;99.90;;;;;;5045425;28;20033;-75
2021/07/09 01:35:25;;;;;;;68.00;31.65;;;13.20;99.90;;;;;;5035684;28;20048;-75
2021/07/09 01:38:01;;;;;;;75.18;33.65;;;13.30;99.90;;;;;;5041335;28;20548;-74
2021/07/09 01:40:29;;;;;;;94.50;39.65;;;13.40;99.90;;;;;;5052347;28;20048;-75
2021/07/09 01:42:55;;;;;;;72.07;34.67;;;13.50;99.90;;;;;;5049653;28;20116;-74
2021/07/09 01:45:22;;;;;;;83.72;38.15;;;13.60;99.90;;;;;;5042013;28;20029;-75
2021/07/09 01:47:51;;;;;;;87.55;38.20;;;13.60;99.90;;;;;;5048889;28;20041;-75
2021/07/09 01:50:18;;;;;;;98.00;45.42;;;13.80;99.90;;;;;;5044214;28;20660;-75
2021/07/09 01:52:45;;;;;;;98.38;44.80;;;13.90;99.90;;;;;;5034225;28;20040;-75
2021/07/09 01:55:12;;;;;;;79.75;41.88;;;14.00;99.90;;;;;;5038631;28;20048;-75
2021/07/09 01:57:39;;;;;;;85.55;43.03;;;14.10;99.90;;;;;;5035282;28;20476;-75
2021/07/09 02:00:09;;;;;;;80.20;39.15;;;14.20;99.90;;;;;;5032789;28;20092;-75
2021/07/09 02:02:36;;;;;;;85.88;41.20;;;14.20;99.90;;;;;;5036926;28;20119;-75
2021/07/09 02:05:06;;;;;;;74.95;37.03;;;14.20;99.90;;;;;;5043665;28;20514;-74
2021/07/09 02:07:31;;;;;;;64.57;33.10;;;14.20;99.90;;;;;;5036893;28;20049;-75
2021/07/09 02:09:58;;;;;;;61.72;32.47;;;14.10;99.90;;;;;;5032338;28;20037;-75
2021/07/09 02:12:26;;;;;;;59.70;32.40;;;14.00;99.90;;;;;;5018405;28;20029;-75
2021/07/09 02:14:52;;;;;;;51.55;27.15;;;14.00;99.90;;;;;;5052641;28;20064;-75
2021/07/09 02:17:20;;;;;;;62.58;29.23;;;13.90;99.90;;;;;;5049200;28;20044;-75
2021/07/09 02:19:48;;;;;;;52.08;27.73;;;13.90;99.90;;;;;;5031664;28;20041;-75
2021/07/09 02:22:15;;;;;;;50.03;26.67;;;13.80;99.90;;;;;;5043395;28;20033;-76
2021/07/09 02:24:44;;;;;;;51.38;25.75;;;13.80;99.90;;;;;;5038637;28;20057;-75
2021/07/09 02:27:10;;;;;;;52.00;27.02;;;13.80;99.90;;;;;;5038299;28;20037;-75
2021/07/09 02:29:36;;;;;;;58.28;26.70;;;13.80;99.90;;;;;;5031835;28;20045;-75
2021/07/09 02:32:06;;;;;;;48.88;25.83;;;13.70;99.90;;;;;;5040478;28;20067;-75
2021/07/09 02:34:33;;;;;;;48.92;25.85;;;13.70;99.90;;;;;;5038687;28;20087;-75
2021/07/09 02:36:59;;;;;;;54.33;27.63;;;13.70;99.90;;;;;;5043647;28;20395;-75
2021/07/09 02:39:28;;;;;;;59.58;28.80;;;13.70;99.90;;;;;;5038860;28;20036;-75
2021/07/09 02:41:55;;;;;;;64.30;30.33;;;13.70;99.90;;;;;;5032123;28;20041;-75
2021/07/09 02:44:22;;;;;;;53.00;27.80;;;13.70;99.90;;;;;;5051249;28;20041;-74
2021/07/09 02:46:48;;;;;;;61.47;29.77;;;13.70;99.90;;;;;;5040565;28;20042;-75
2021/07/09 02:49:16;;;;;;;66.70;30.63;;;13.70;99.90;;;;;;5045635;28;20037;-74
2021/07/09 02:51:43;;;;;;;55.85;28.52;;;13.80;99.90;;;;;;5044963;28;20624;-74
2021/07/09 02:54:09;;;;;;;62.17;30.45;;;13.70;99.90;;;;;;5049598;28;20059;-74
2021/07/09 02:56:35;;;;;;;55.47;30.42;;;13.80;99.90;;;;;;5043994;28;20476;-74
2021/07/09 02:59:00;;;;;;;56.22;29.70;;;13.80;99.90;;;;;;5038143;28;20045;-75
2021/07/09 03:01:26;;;;;;;65.85;32.35;;;13.80;99.90;;;;;;5036387;28;20375;-75
2021/07/09 03:03:56;;;;;;;60.70;31.33;;;13.80;99.90;;;;;;5041964;28;20067;-74
2021/07/09 03:06:22;;;;;;;59.50;32.17;;;13.90;99.90;;;;;;5049702;28;20052;-74
2021/07/09 03:08:48;;;;;;;69.78;34.25;;;13.90;99.90;;;;;;5040277;28;20044;-75
2021/07/09 03:11:16;;;;;;;62.33;35.10;;;14.00;99.90;;;;;;5031656;28;20126;-75
2021/07/09 03:13:41;;;;;;;70.10;36.97;;;14.00;99.90;;;;;;5043632;28;20036;-75
2021/07/09 03:16:07;;;;;;;75.65;35.50;;;14.00;99.90;;;;;;5031844;28;20128;-76
2021/07/09 03:18:34;;;;;;;63.10;34.92;;;14.00;99.90;;;;;;5038540;28;20060;-76
2021/07/09 03:20:59;;;;;;;63.55;33.83;;;14.10;99.90;;;;;;5017033;28;20041;-76
2021/07/09 03:23:25;;;;;;;65.40;35.20;;;14.10;99.90;;;;;;5028307;28;20034;-76
2021/07/09 03:25:51;;;;;;;;;;;14.20;99.90;;;;;;5033453;28;20033;-76
2021/07/09 03:28:17;;;;;;;62.20;35.70;;;14.20;99.90;;;;;;5048968;28;19921;-76
2021/07/09 03:30:43;;;;;;;62.13;32.90;;;14.20;99.90;;;;;;5013937;28;20116;-76
2021/07/09 03:33:11;;;;;;;;;;;14.20;99.90;;;;;;5051082;28;20041;-76
2021/07/09 03:35:39;;;;;;;60.30;33.97;;;14.20;99.90;;;;;;5051471;28;20011;-76
2021/07/09 03:38:05;;;;;;;66.65;36.15;;;14.30;99.90;;;;;;5030003;28;20075;-76
2021/07/09 03:40:31;;;;;;;60.88;33.75;;;14.40;99.90;;;;;;5023604;28;20037;-76
2021/07/09 03:42:57;;;;;;;60.35;33.15;;;14.40;99.90;;;;;;5042444;28;20390;-75
2021/07/09 03:45:23;;;;;;;49.45;29.67;;;14.40;99.90;;;;;;5020805;28;20060;-77
2021/07/09 03:47:48;;;;;;;55.10;31.40;;;14.40;99.90;;;;;;5001966;28;20045;-76
2021/07/09 03:50:15;;;;;;;54.58;31.20;;;14.40;99.90;;;;;;5035221;28;20414;-76
2021/07/09 03:52:41;;;;;;;56.35;29.45;;;14.40;99.90;;;;;;5040084;28;20120;-75
2021/07/09 03:55:10;;;;;;;48.25;27.77;;;14.40;99.90;;;;;;5038008;28;20041;-75
2021/07/09 03:57:36;;;;;;;48.97;27.88;;;14.40;99.90;;;;;;5039563;28;20057;-75
2021/07/09 04:00:05;;;;;;;47.15;28.60;;;14.50;99.90;;;;;;5022921;28;20057;-75
2021/07/09 04:02:31;;;;;;;51.55;29.10;;;14.50;99.90;;;;;;5043909;28;20523;-75
2021/07/09 04:04:57;;;;;;;46.47;27.15;;;14.50;99.90;;;;;;5040843;28;20047;-75
2021/07/09 04:07:23;;;;;;;;;;;14.50;99.90;;;;;;5018235;28;20053;-75
2021/07/09 04:09:48;;;;;;;49.45;27.35;;;14.50;99.90;;;;;;5041084;28;19921;-75
2021/07/09 04:12:14;;;;;;;49.95;27.38;;;14.60;99.90;;;;;;5039343;28;20116;-75
2021/07/09 04:14:40;;;;;;;51.13;27.42;;;14.60;99.90;;;;;;5046385;28;20073;-75
2021/07/09 04:17:06;;;;;;;43.97;25.17;;;14.70;99.90;;;;;;5037674;28;20509;-76
2021/07/09 04:19:32;;;;;;;50.05;26.85;;;14.70;99.90;;;;;;5029833;28;20037;-76
2021/07/09 04:21:58;;;;;;;;;;;14.70;99.90;;;;;;5041484;28;20522;-76
2021/07/09 04:24:23;;;;;;;55.22;27.27;;;14.70;99.90;;;;;;5033518;28;20418;-76
2021/07/09 04:26:49;;;;;;;;;;;14.70;99.90;;;;;;5034993;28;20037;-76
2021/07/09 04:29:15;;;;;;;42.10;23.98;;;14.70;99.90;;;;;;5040494;28;19975;-75
2021/07/09 04:31:41;;;;;;;;;;;14.70;99.90;;;;;;5052334;28;20391;-76
2021/07/09 04:34:07;;;;;;;47.08;24.85;;;14.70;99.90;;;;;;5048515;28;20373;-76
2021/07/09 04:36:32;;;;;;;45.80;24.80;;;14.70;99.90;;;;;;5050546;28;20056;-75
2021/07/09 04:38:58;;;;;;;;;;;14.70;99.90;;;;;;5051933;28;20135;-75
2021/07/09 04:41:24;;;;;;;55.03;25.63;;;14.70;99.90;;;;;;5052452;28;19920;-75
2021/07/09 04:43:50;;;;;;;;;;;14.70;99.90;;;;;;5036478;28;20045;-76
2021/07/09 04:46:16;;;;;;;46.15;25.20;;;14.70;99.90;;;;;;5037677;28;19939;-75
2021/07/09 04:48:42;;;;;;;54.20;27.33;;;14.70;99.90;;;;;;5047936;28;20427;-75
2021/07/09 04:51:08;;;;;;;44.97;26.17;;;14.70;99.90;;;;;;5029613;28;20383;-75
2021/07/09 04:53:34;;;;;;;43.70;24.13;;;14.70;99.90;;;;;;5005728;28;20033;-76
2021/07/09 04:56:00;;;;;;;52.55;26.13;;;14.70;99.90;;;;;;5048134;28;20371;-76
2021/07/09 04:58:25;;;;;;;;;;;14.60;99.90;;;;;;5047674;28;20433;-76
2021/07/09 05:00:51;;;;;;;53.10;25.92;;;14.50;99.90;;;;;;5037094;28;19917;-76
2021/07/09 05:03:17;;;;;;;;;;;14.50;99.90;;;;;;5035241;28;20477;-75
2021/07/09 05:05:43;;;;;;;56.22;26.67;;;14.50;99.90;;;;;;5027460;28;20003;-75
2021/07/09 05:08:09;;;;;;;55.75;28.45;;;14.40;99.90;;;;;;5043899;28;20033;-75
2021/07/09 05:10:35;;;;;;;64.03;28.17;;;14.40;99.90;;;;;;5034392;28;20490;-75
2021/07/09 05:13:02;;;;;;;;;;;14.40;99.90;;;;;;5049525;28;20037;-76
2021/07/09 05:15:28;;;;;;;64.97;29.67;;;14.30;99.90;;;;;;5039856;28;19925;-76
2021/07/09 05:17:54;;;;;;;66.10;30.90;;;14.30;99.90;;;;;;5021298;28;20050;-76
2021/07/09 05:20:20;;;;;;;71.38;30.67;;;14.30;99.90;;;;;;5036665;28;20029;-76
2021/07/09 05:22:45;;;;;;;68.78;31.30;;;14.30;99.90;;;;;;5014383;28;20042;-76
2021/07/09 05:25:12;;;;;;;76.55;33.67;;;14.30;99.90;;;;;;5048523;28;20041;-76
2021/07/09 05:27:38;;;;;;;77.95;35.25;;;14.30;99.90;;;;;;5043610;28;20045;-75
2021/07/09 05:30:05;;;;;;;64.47;30.83;;;14.30;99.90;;;;;;5024211;28;20227;-76
2021/07/09 05:32:32;;;;;;;79.03;33.78;;;14.50;99.90;;;;;;5033163;28;20458;-76
2021/07/09 05:34:58;;;;;;;64.55;32.50;;;14.70;99.90;;;;;;5046292;28;20032;-76
2021/07/09 05:37:25;;;;;;;58.65;30.55;;;14.80;99.90;;;;;;5044445;28;20431;-76
2021/07/09 05:39:51;;;;;;;62.83;30.15;;;15.00;99.90;;;;;;5039638;28;20033;-75
2021/07/09 05:42:18;;;;;;;46.78;24.77;;;15.10;99.90;;;;;;5034588;28;20072;-75
2021/07/09 05:44:43;;;;;;;42.75;24.33;;;15.20;99.90;;;;;;5039108;28;20475;-76
2021/07/09 05:47:13;;;;;;;43.40;24.05;;;15.30;99.90;;;;;;5052961;28;20047;-76
2021/07/09 05:49:39;;;;;;;42.83;22.45;;;15.30;99.90;;;;;;5049828;28;20037;-76
2021/07/09 05:52:06;;;;;;;47.65;26.85;;;15.50;99.90;;;;;;5049842;28;20037;-76
2021/07/09 05:54:32;;;;;;;40.58;22.65;;;15.50;99.90;;;;;;5035135;28;20034;-75
2021/07/09 05:56:58;;;;;;;41.22;22.02;;;15.60;99.90;;;;;;5045601;28;20072;-75
2021/07/09 05:59:24;;;;;;;34.35;20.90;;;15.70;99.90;;;;;;5043532;28;20056;-76
2021/07/09 06:01:50;;;;;;;;;;;15.70;99.90;;;;;;5039483;28;20450;-76
2021/07/09 06:04:17;;;;;;;35.50;20.95;;;15.70;99.90;;;;;;5029988;28;19925;-75
2021/07/09 06:06:43;;;;;;;34.92;19.73;;;15.80;99.90;;;;;;5050014;28;20048;-76
2021/07/09 06:09:09;;;;;;;34.05;19.42;;;15.90;99.90;;;;;;5037978;28;20043;-76
2021/07/09 06:11:35;;;;;;;;;;;16.00;99.90;;;;;;5051728;28;20068;-76
2021/07/09 06:14:03;;;;;;;33.13;19.25;;;16.10;99.90;;;;;;5034045;28;19920;-76
2021/07/09 06:16:29;;;;;;;31.77;18.67;;;16.10;99.90;;;;;;5038236;28;20502;-75
2021/07/09 06:18:54;;;;;;;;;;;16.10;99.90;;;;;;5033017;28;20478;-76
2021/07/09 06:21:22;;;;;;;32.88;18.58;;;16.20;99.90;;;;;;5040549;28;19974;-75
2021/07/09 06:23:48;;;;;;;33.35;20.35;;;16.20;99.90;;;;;;5016933;28;20045;-75
2021/07/09 06:26:13;;;;;;;31.33;18.80;;;16.20;99.90;;;;;;5046160;28;20036;-75
2021/07/09 06:28:39;;;;;;;;;;;16.30;99.90;;;;;;5040847;28;20067;-76
2021/07/09 06:31:06;;;;;;;33.10;18.73;;;16.40;99.90;;;;;;5033140;28;19959;-76
2021/07/09 06:33:31;;;;;;;29.25;17.50;;;16.50;99.90;;;;;;5038635;28;20049;-76
2021/07/09 06:35:57;;;;;;;31.80;17.55;;;16.70;99.90;;;;;;5047543;28;20525;-76
2021/07/09 06:38:23;;;;;;;31.02;19.27;;;16.80;99.90;;;;;;5029029;28;20044;-76
2021/07/09 06:40:49;;;;;;;;;;;16.90;99.90;;;;;;5049327;28;20671;-75
2021/07/09 06:43:14;;;;;;;29.58;18.42;;;17.10;99.90;;;;;;5035929;28;19921;-76
2021/07/09 06:45:41;;;;;;;;;;;17.20;99.90;;;;;;5038445;28;20041;-76
2021/07/09 06:48:07;;;;;;;27.90;17.30;;;17.40;99.90;;;;;;5032058;28;19975;-76
2021/07/09 06:50:35;;;;;;;28.77;16.67;;;17.50;99.90;;;;;;5038859;28;20061;-75
2021/07/09 06:53:03;;;;;;;28.80;17.67;;;17.60;99.90;;;;;;5034330;28;20402;-75
2021/07/09 06:55:29;;;;;;;27.98;17.30;;;17.70;99.90;;;;;;5051628;28;20470;-76
2021/07/09 06:57:55;;;;;;;26.25;16.15;;;17.70;99.90;;;;;;5038340;28;20050;-76
2021/07/09 07:00:20;;;;;;;;;;;17.70;99.90;;;;;;5038712;28;20041;-76
2021/07/09 07:02:47;;;;;;;26.55;17.23;;;17.80;99.90;;;;;;5034607;28;20259;-75
2021/07/09 07:05:14;;;;;;;24.08;16.20;;;17.90;99.90;;;;;;5035692;28;20052;-75
2021/07/09 07:07:40;;;;;;;24.10;16.17;;;18.10;99.90;;;;;;5044016;28;20067;-76
2021/07/09 07:10:07;;;;;;;;;;;18.30;99.90;;;;;;5038474;28;20045;-76
2021/07/09 07:12:34;;;;;;;22.90;14.40;;;18.40;99.90;;;;;;5038411;28;19921;-76
2021/07/09 07:15:02;;;;;;;26.48;15.90;;;18.50;99.90;;;;;;5040915;28;20056;-76
2021/07/09 07:17:28;;;;;;;22.13;14.82;;;18.70;99.90;;;;;;5024208;28;20041;-76
2021/07/09 07:19:54;;;;;;;22.02;14.27;;;18.90;99.90;;;;;;5033987;28;20487;-76
2021/07/09 07:22:19;;;;;;;22.92;14.27;;;19.10;99.90;;;;;;5041909;28;20033;-76
2021/07/09 07:24:48;;;;;;;;;;;19.30;99.90;;;;;;5039331;28;20471;-76
2021/07/09 07:27:15;;;;;;;22.10;13.57;;;19.40;99.90;;;;;;5035984;28;19924;-76
2021/07/09 07:29:41;;;;;;;20.85;14.00;;;19.60;99.90;;;;;;5022916;28;20037;-76
2021/07/09 07:32:07;;;;;;;18.77;12.88;;;19.40;99.90;;;;;;5040945;28;20044;-75
2021/07/09 07:34:33;;;;;;;21.13;13.27;;;19.30;99.90;;;;;;5042803;28;20058;-75
2021/07/09 07:36:59;;;;;;;19.10;12.93;;;19.30;99.90;;;;;;5035841;28;20044;-76
2021/07/09 07:39:24;;;;;;;;;;;19.20;99.90;;;;;;5031934;28;20123;-76
2021/07/09 07:41:50;;;;;;;24.42;12.40;;;19.00;99.90;;;;;;5030147;28;19917;-75
2021/07/09 07:44:16;;;;;;;;;;;18.90;99.90;;;;;;5020655;28;20034;-75
2021/07/09 07:46:48;;;;;;;19.92;13.50;;;18.80;99.90;;;;;;5038970;28;19970;-76
2021/07/09 07:49:14;;;;;;;15.63;11.75;;;18.80;99.90;;;;;;5009390;28;20038;-79
2021/07/09 07:51:40;;;;;;;18.92;12.57;;;18.80;99.90;;;;;;5017556;28;20041;-77
2021/07/09 07:54:06;;;;;;;21.55;13.00;;;18.90;99.90;;;;;;5020847;28;20049;-80
2021/07/09 07:56:32;;;;;;;21.08;13.15;;;19.00;99.90;;;;;;5036105;28;20091;-78
2021/07/09 07:58:58;;;;;;;;;;;19.00;99.90;;;;;;5041129;28;20087;-81
2021/07/09 08:01:25;;;;;;;13.88;9.85;;;19.00;99.90;;;;;;5041120;28;19962;-80
2021/07/09 08:03:51;;;;;;;12.65;9.43;;;18.90;99.90;;;;;;5031427;28;20046;-81
2021/07/09 08:06:17;;;;;;;13.55;10.13;;;18.90;99.90;;;;;;5044687;28;20110;-79
2021/07/09 08:08:43;;;;;;;12.88;9.50;;;18.90;99.90;;;;;;5034702;28;20114;-78
2021/07/09 08:11:09;;;;;;;;;;;19.10;99.90;;;;;;5032925;28;20549;-77
2021/07/09 08:13:38;;;;;;;13.98;10.45;;;19.30;99.90;;;;;;5036649;28;20389;-77
2021/07/09 08:16:04;;;;;;;15.57;10.40;;;19.60;99.90;;;;;;5039069;28;20087;-78
2021/07/09 08:18:30;;;;;;;15.25;10.55;;;19.90;99.90;;;;;;5040669;28;20518;-78
2021/07/09 08:20:56;;;;;;;14.80;10.38;;;20.20;99.90;;;;;;5043211;28;20044;-80
2021/07/09 08:23:22;;;;;;;14.15;10.27;;;20.50;99.90;;;;;;5034399;28;20037;-79
2021/07/09 08:25:49;;;;;;;;;;;20.50;99.90;;;;;;5037705;28;20068;-79
2021/07/09 08:28:15;;;;;;;12.95;9.82;;;20.50;99.90;;;;;;5035502;28;20299;-76
2021/07/09 08:30:41;;;;;;;11.85;9.60;;;20.50;99.90;;;;;;5021511;28;20050;-76
2021/07/09 08:33:07;;;;;;;16.40;10.85;;;20.40;99.90;;;;;;5040773;28;20040;-76
2021/07/09 08:35:33;;;;;;;13.50;9.68;;;20.30;99.90;;;;;;5032058;28;20033;-76
2021/07/09 08:37:59;;;;;;;13.30;9.68;;;20.30;99.90;;;;;;5033186;28;20041;-76
2021/07/09 08:40:25;;;;;;;;;;;20.20;99.90;;;;;;5041021;28;20044;-78
2021/07/09 08:42:51;;;;;;;11.90;9.60;;;20.10;99.90;;;;;;5015218;28;19917;-80
2021/07/09 08:45:16;;;;;;;;;;;20.10;99.90;;;;;;5025453;28;20033;-79
2021/07/09 08:47:43;;;;;;;13.95;9.73;;;20.20;99.90;;;;;;5032559;28;19917;-78
2021/07/09 08:50:12;;;;;;;13.93;9.15;;;20.50;99.90;;;;;;5034825;28;20041;-79
2021/07/09 08:52:40;;;;;;;13.52;9.77;;;20.70;99.90;;;;;;5015999;28;20515;-79
2021/07/09 08:55:11;;;;;;;12.40;9.82;;;20.50;99.90;;;;;;5046206;28;20037;-80
2021/07/09 08:57:45;;;;;;;15.02;10.50;;;20.30;99.90;;;;;;5037791;28;20494;-80
2021/07/09 09:00:34;;;;;;;11.90;9.00;;;20.20;99.90;;;;;;5038642;28;20061;-82
2021/07/09 09:03:10;;;;;;;13.00;9.35;;;20.20;99.90;;;;;;5015351;28;20049;-78
2021/07/09 09:05:35;;;;;;;13.35;9.88;;;20.20;99.90;;;;;;5037362;28;20041;-79
2021/07/09 09:08:03;;;;;;;11.85;8.40;;;20.40;99.90;;;;;;5038552;28;20402;-79
2021/07/09 09:10:47;;;;;;;12.75;9.45;;;20.40;99.90;;;;;;5036044;28;20128;-79
2021/07/09 09:13:27;;;;;;;11.43;8.35;;;20.40;99.90;;;;;;5050914;28;20036;-77
2021/07/09 09:16:09;;;;;;;14.98;10.68;;;20.50;99.90;;;;;;5039294;28;20040;-79
2021/07/09 09:18:39;;;;;;;13.02;9.32;;;20.60;99.90;;;;;;5037170;28;20084;-79
2021/07/09 09:21:12;;;;;;;11.48;9.10;;;20.80;99.90;;;;;;5038336;28;20041;-80
2021/07/09 09:23:51;;;;;;;12.60;9.20;;;21.10;99.90;;;;;;5043265;28;20029;-80
2021/07/09 09:26:42;;;;;;;12.25;9.75;;;21.10;99.90;;;;;;5040242;28;20044;-80
2021/07/09 09:29:25;;;;;;;13.73;8.80;;;21.20;99.90;;;;;;5043463;28;20067;-79
2021/07/09 09:32:02;;;;;;;12.38;9.57;;;21.00;99.90;;;;;;5040146;28;20038;-80
2021/07/09 09:34:44;;;;;;;11.95;9.27;;;20.70;99.90;;;;;;5040919;28;20044;-79
2021/07/09 09:37:12;;;;;;;12.15;8.95;;;20.60;99.90;;;;;;5029620;28;20037;-79
2021/07/09 09:39:42;;;;;;;12.32;8.75;;;20.70;99.90;;;;;;5035111;28;20037;-79
2021/07/09 09:42:24;;;;;;;10.95;8.57;;;20.90;99.90;;;;;;5032866;28;20060;-78
2021/07/09 09:44:51;;;;;;;12.35;8.40;;;21.20;99.90;;;;;;5037882;28;20533;-79
2021/07/09 09:47:22;;;;;;;10.13;7.43;;;21.20;99.90;;;;;;5038464;28;20576;-81
2021/07/09 09:49:53;;;;;;;12.45;8.13;;;21.20;99.90;;;;;;5032708;28;20037;-77
2021/07/09 09:52:40;;;;;;;9.40;7.60;;;21.20;99.90;;;;;;5035816;28;20056;-78
2021/07/09 09:55:12;;;;;;;10.93;7.30;;;21.20;99.90;;;;;;5037185;28;20492;-78
2021/07/09 09:57:39;;;;;;;9.18;7.28;;;21.20;99.90;;;;;;5042324;28;20159;-81
2021/07/09 10:00:09;;;;;;;9.05;7.30;;;21.30;99.90;;;;;;5034376;28;20064;-81
2021/07/09 10:02:36;;;;;;;9.93;7.18;;;21.50;99.90;;;;;;5037829;28;20507;-80
2021/07/09 10:05:04;;;;;;;9.27;6.97;;;21.90;99.90;;;;;;5035178;28;20057;-81
2021/07/09 10:07:35;;;;;;;9.10;7.82;;;22.30;99.90;;;;;;5016005;28;20033;-83
2021/07/09 10:10:05;;;;;;;10.30;7.32;;;22.40;99.90;;;;;;5034839;28;20500;-82
2021/07/09 10:12:32;;;;;;;10.57;8.27;;;22.30;99.90;;;;;;5032346;28;20056;-81
2021/07/09 10:15:04;;;;;;;10.80;8.38;;;22.10;99.90;;;;;;5021912;28;20090;-82
2021/07/09 10:17:30;;;;;;;9.60;8.07;;;22.00;99.90;;;;;;5033907;28;20033;-80
2021/07/09 10:19:59;;;;;;;11.30;8.43;;;22.10;99.90;;;;;;5036721;28;20509;-79
2021/07/09 10:22:25;;;;;;;10.45;7.75;;;22.10;99.90;;;;;;5037582;28;20060;-79
2021/07/09 10:24:54;;;;;;;10.52;8.52;;;22.00;99.90;;;;;;5037552;28;20502;-82
2021/07/09 10:27:25;;;;;;;11.00;8.63;;;21.90;99.90;;;;;;5038873;28;20038;-79
2021/07/09 10:29:54;;;;;;;11.23;8.90;;;21.90;99.90;;;;;;5037237;28;20076;-84
2021/07/09 10:32:38;;;;;;;9.80;7.90;;;21.90;99.90;;;;;;5016419;28;20034;-78
2021/07/09 10:35:09;;;;;;;10.18;7.80;;;21.80;99.90;;;;;;5032900;28;20489;-77
2021/07/09 10:37:37;;;;;;;9.23;7.57;;;22.00;99.90;;;;;;5031921;28;20048;-77
2021/07/09 10:40:06;;;;;;;10.70;8.43;;;22.20;99.90;;;;;;5037821;28;20095;-77
2021/07/09 10:42:40;;;;;;;12.38;8.65;;;22.50;99.90;;;;;;5038474;28;20033;-76
2021/07/09 10:45:17;;;;;;;10.20;8.05;;;22.60;99.90;;;;;;5038995;28;20032;-78
2021/07/09 10:47:50;;;;;;;10.07;8.30;;;22.60;99.90;;;;;;5034010;28;20038;-77
2021/07/09 10:50:26;;;;;;;9.50;7.35;;;22.60;99.90;;;;;;5049895;28;20044;-79
2021/07/09 10:52:57;;;;;;;9.32;7.57;;;22.50;99.90;;;;;;5040456;28;20034;-76
2021/07/09 10:55:27;;;;;;;9.60;7.47;;;22.40;99.90;;;;;;5037432;28;20044;-76
2021/07/09 10:58:22;;;;;;;9.05;7.28;;;22.20;99.90;;;;;;5031947;28;20116;-76
2021/07/09 11:00:55;;;;;;;10.63;7.80;;;22.10;99.90;;;;;;5038353;28;20128;-78
2021/07/09 11:03:36;;;;;;;10.43;8.63;;;22.10;99.90;;;;;;5031003;28;20426;-75
2021/07/09 11:06:08;;;;;;;11.82;8.25;;;22.00;99.90;;;;;;5033174;28;20412;-77
2021/07/09 11:08:34;;;;;;;9.23;7.90;;;22.00;99.90;;;;;;5041776;28;20052;-77
2021/07/09 11:11:11;;;;;;;12.60;8.38;;;22.10;99.90;;;;;;5034570;28;20112;-75
2021/07/09 11:13:41;;;;;;;9.93;7.65;;;22.20;99.90;;;;;;5032512;28;20124;-78
2021/07/09 11:16:25;;;;;;;10.93;8.15;;;22.50;99.90;;;;;;5043966;28;20125;-76
2021/07/09 11:18:59;;;;;;;10.80;7.97;;;22.80;99.90;;;;;;5031225;28;20102;-78
2021/07/09 11:21:34;;;;;;;11.48;8.75;;;23.10;99.90;;;;;;5040943;28;20087;-77
2021/07/09 11:24:02;;;;;;;10.05;7.95;;;23.30;99.90;;;;;;5030712;28;20116;-77
2021/07/09 11:26:29;;;;;;;10.57;8.35;;;23.10;99.90;;;;;;5033709;28;20048;-79
2021/07/09 11:28:57;;;;;;;11.18;8.30;;;23.00;99.90;;;;;;5038542;28;20052;-78
2021/07/09 11:31:35;;;;;;;8.77;7.63;;;23.00;99.90;;;;;;5051139;28;20087;-76
2021/07/09 11:34:09;;;;;;;9.90;7.72;;;23.10;99.90;;;;;;5033900;28;20037;-76
2021/07/09 11:36:43;;;;;;;9.75;7.47;;;23.30;99.90;;;;;;5054672;28;20045;-79
2021/07/09 11:39:16;;;;;;;10.90;8.20;;;23.20;99.90;;;;;;5031253;28;20044;-77
2021/07/09 11:42:09;;;;;;;11.07;8.07;;;23.10;99.90;;;;;;5036384;28;20068;-78
2021/07/09 11:44:38;;;;;;;9.25;7.97;;;23.00;99.90;;;;;;5035101;28;20056;-78
2021/07/09 11:47:10;;;;;;;10.27;8.50;;;22.90;99.90;;;;;;5042555;28;20511;-77
2021/07/09 11:49:58;;;;;;;9.98;8.80;;;22.80;99.90;;;;;;5013627;28;20064;-77
2021/07/09 11:52:27;;;;;;;12.43;8.90;;;22.90;99.90;;;;;;5050220;28;20454;-76
2021/07/09 11:54:56;;;;;;;13.40;9.48;;;22.90;99.90;;;;;;5017245;28;20048;-78
2021/07/09 11:57:31;;;;;;;9.10;7.93;;;22.90;99.90;;;;;;5014415;28;20048;-76
2021/07/09 12:00:06;;;;;;;12.15;9.00;;;22.80;99.90;;;;;;5043781;28;20087;-76
2021/07/09 12:02:33;;;;;;;11.50;8.82;;;23.00;99.90;;;;;;5046108;28;20049;-77
2021/07/09 12:05:04;;;;;;;10.45;7.68;;;23.00;99.90;;;;;;5013700;28;20041;-76
2021/07/09 12:07:31;;;;;;;10.23;7.72;;;23.00;99.90;;;;;;5027833;28;20041;-77
2021/07/09 12:10:15;;;;;;;9.45;8.10;;;22.90;99.90;;;;;;5032363;28;20083;-75
2021/07/09 12:12:42;;;;;;;9.30;7.93;;;22.80;99.90;;;;;;5033574;28;20083;-78
2021/07/09 12:15:22;;;;;;;11.18;8.05;;;22.90;99.90;;;;;;5038539;28;20063;-77
2021/07/09 12:17:59;;;;;;;9.35;7.75;;;22.90;99.90;;;;;;5044586;28;20083;-76
2021/07/09 12:20:32;;;;;;;9.50;7.13;;;22.80;99.90;;;;;;5033162;28;20172;-77
2021/07/09 12:23:04;;;;;;;9.48;7.68;;;22.70;99.90;;;;;;5040625;28;20098;-75
2021/07/09 12:25:31;;;;;;;9.77;7.50;;;22.70;99.90;;;;;;5033957;28;20037;-79
2021/07/09 12:28:03;;;;;;;10.73;7.40;;;22.70;99.90;;;;;;5044414;28;20037;-76
2021/07/09 12:30:33;;;;;;;8.85;7.55;;;22.70;99.90;;;;;;5032528;28;20037;-79
2021/07/09 12:33:01;;;;;;;10.35;8.15;;;22.60;99.90;;;;;;5036601;28;20502;-78
2021/07/09 12:35:30;;;;;;;11.10;7.60;;;22.60;99.90;;;;;;5051222;28;20053;-77
2021/07/09 12:38:05;;;;;;;12.73;7.78;;;22.60;99.90;;;;;;5064387;28;20533;-77
2021/07/09 12:40:42;;;;;;;8.70;7.13;;;22.70;99.90;;;;;;5055382;28;20048;-81
2021/07/09 12:43:13;;;;;;;9.32;7.55;;;22.70;99.90;;;;;;5042174;28;20352;-76
2021/07/09 12:45:40;;;;;;;11.82;7.55;;;22.80;99.90;;;;;;5035663;28;20037;-80
2021/07/09 12:48:06;;;;;;;10.18;7.82;;;22.80;99.90;;;;;;5042379;28;20129;-78